Time;durP1;ratioP1;P1;durP2;ratioP2;P2;SDS_P1;SDS_P2;PMS_P1;PMS_P2;Temp;Humidity;BMP_temperature;BMP_pressure;BME280_temperature;BME280_humidity;BME280_pressure;Samples;Min_cycle;Max_cycle;Signal;HPM_P1;HPM_P2
2021/01/25 10:28:22;;;;;;;;;;;;;;;;;;3821762;37;19953;-63
2021/01/25 10:30:48;;;;;;;;;;;;;;;;;;4287187;32;20024;-64
2021/01/25 10:33:13;;;;;;;;;;;;;;;;;;4358338;32;20006;-67
2021/01/25 10:35:39;;;;;;;;;;;;;;;;;;4357413;32;19974;-66
2021/01/25 10:40:19;;;;;;;;;;;;;;;;;;3672948;37;20034;-66
2021/01/25 10:42:45;;;;;;;;;;;;;;;;;;4307191;32;19970;-65
2021/01/25 10:45:12;;;;;;;;;;;;;;;;;;4370711;32;20005;-66
2021/01/25 10:47:37;;;;;;;;;;;;;;;;;;4352816;32;20353;-66
2021/01/25 10:50:04;;;;;;;;;;;;;;;;;;4360070;32;19986;-64
2021/01/25 10:52:29;;;;;;;;;;;;;;;;;;4328854;32;20072;-65
2021/01/25 10:54:55;;;;;;;;;;;;;;;;;;4336635;32;20401;-67
2021/01/25 10:57:20;;;;;;;7.20;5.60;;;;;;;;;;4365045;32;20356;-68
2021/01/25 10:59:46;;;;;;;5.95;4.37;;;;;;;;;;4346992;32;20487;-65
2021/01/25 11:02:12;;;;;;;6.72;4.43;;;;;;;;;;4344586;32;20082;-69
2021/01/25 11:04:38;;;;;;;6.95;4.72;;;;;;;;;;4354150;32;20172;-66
2021/01/25 11:07:04;;;;;;;7.18;5.30;;;;;;;;;;4354971;32;20467;-66
2021/01/25 11:09:30;;;;;;;6.82;3.67;;;;;;;;;;4346791;32;20183;-72
2021/01/25 11:11:58;;;;;;;6.60;4.68;;;;;;;;;;4340929;32;20073;-69
2021/01/25 11:14:24;;;;;;;6.30;3.20;;;;;;;;;;4351708;32;20421;-66
2021/01/25 11:16:49;;;;;;;6.35;4.35;;;;;;;;;;4341647;32;20082;-64
2021/01/25 11:19:15;;;;;;;5.47;3.80;;;;;;;;;;4344398;32;20102;-70
2021/01/25 11:21:41;;;;;;;6.30;4.15;;;;;;;;;;4339376;32;20155;-67
2021/01/25 11:24:07;;;;;;;6.18;3.92;;;;;;;;;;4327244;33;20158;-65
2021/01/25 11:26:37;;;;;;;5.93;3.95;;;;;;;;;;4330078;32;20528;-63
2021/01/25 11:29:04;;;;;;;6.68;4.47;;;;;;;;;;4358247;32;20086;-64
2021/01/25 11:31:30;;;;;;;5.97;4.18;;;;;;;;;;4356868;32;20077;-64
2021/01/25 11:33:56;;;;;;;5.55;4.18;;;;;;;;;;4356929;32;20090;-63
2021/01/25 11:36:22;;;;;;;6.10;3.75;;;;;;;;;;4332394;32;20521;-64
2021/01/25 11:38:47;;;;;;;5.55;3.83;;;;;;;;;;4344185;32;20078;-64
2021/01/25 11:41:13;;;;;;;5.12;3.83;;;;;;;;;;4358911;32;20215;-65
2021/01/25 11:43:39;;;;;;;6.22;4.10;;;;;;;;;;4332657;32;20106;-63
2021/01/25 11:46:04;;;;;;;6.12;3.67;;;;;;;;;;4353079;32;20179;-62
2021/01/25 11:48:30;;;;;;;5.55;3.85;;;;;;;;;;4340090;32;20592;-62
2021/01/25 11:50:56;;;;;;;5.97;3.75;;;;;;;;;;4321965;33;20082;-62
2021/01/25 11:53:22;;;;;;;6.22;4.47;;;;;;;;;;4329627;33;20224;-61
2021/01/25 11:55:47;;;;;;;5.28;4.10;;;;;;;;;;4354300;32;20090;-62
2021/01/25 11:58:13;;;;;;;7.28;3.90;;;;;;;;;;4332788;33;20098;-63
2021/01/25 12:00:39;;;;;;;5.87;4.18;;;;;;;;;;4309393;33;20112;-62
2021/01/25 12:03:05;;;;;;;5.62;4.18;;;;;;;;;;4358248;32;20071;-63
2021/01/25 12:05:31;;;;;;;6.10;4.43;;;;;;;;;;4334444;33;20199;-63
2021/01/25 12:08:00;;;;;;;6.03;4.00;;;;;;;;;;4322548;33;20082;-63
2021/01/25 12:10:26;;;;;;;5.50;3.97;;;;;;;;;;4338520;32;20062;-62
2021/01/25 12:12:52;;;;;;;5.62;3.87;;;;;;;;;;4331275;32;20125;-62
2021/01/25 12:15:18;;;;;;;5.60;3.90;;;;;;;;;;4318671;33;20523;-63
2021/01/25 12:17:43;;;;;;;5.65;4.00;;;;;;;;;;4320829;33;20161;-61
2021/01/25 12:20:09;;;;;;;7.50;3.97;;;;;;;;;;4321971;33;20066;-61
2021/01/25 12:22:35;;;;;;;5.68;4.28;;;;;;;;;;4332880;32;20556;-63
2021/01/25 12:25:01;;;;;;;5.15;3.65;;;;;;;;;;4343294;32;20086;-63
2021/01/25 12:27:27;;;;;;;5.85;3.87;;;;;;;;;;4318975;33;20079;-63
2021/01/25 12:29:52;;;;;;;5.45;3.85;;;;;;;;;;4342277;33;20078;-63
2021/01/25 12:32:18;;;;;;;5.12;3.53;;;;;;;;;;4322890;31;20077;-63
2021/01/25 12:34:44;;;;;;;5.50;3.58;;;;;;;;;;4352514;32;20503;-63
2021/01/25 12:37:10;;;;;;;7.65;4.50;;;;;;;;;;4357101;32;20152;-62
2021/01/25 12:39:36;;;;;;;5.35;3.85;;;;;;;;;;4368296;32;20126;-61
2021/01/25 12:42:02;;;;;;;6.20;4.43;;;;;;;;;;4321323;32;20547;-65
2021/01/25 12:44:28;;;;;;;6.60;4.40;;;;;;;;;;4321130;32;20102;-61
2021/01/25 12:46:55;;;;;;;6.28;4.53;;;;;;;;;;4349122;32;20206;-60
2021/01/25 12:49:21;;;;;;;7.00;4.72;;;;;;;;;;4333617;32;20066;-61
2021/01/25 12:51:47;;;;;;;6.20;4.22;;;;;;;;;;4347306;32;20085;-61
2021/01/25 12:54:13;;;;;;;6.30;4.65;;;;;;;;;;4334945;32;20476;-62
2021/01/25 12:56:39;;;;;;;7.68;5.10;;;;;;;;;;4330560;33;20075;-61
2021/01/25 12:59:06;;;;;;;6.50;4.40;;;;;;;;;;4354413;32;20157;-61
2021/01/25 13:01:31;;;;;;;5.68;4.03;;;;;;;;;;4335879;32;20078;-61
2021/01/25 13:03:57;;;;;;;5.75;4.05;;;;;;;;;;4347843;32;20101;-61
2021/01/25 13:06:23;;;;;;;5.87;4.10;;;;;;;;;;4333483;32;20157;-63
2021/01/25 13:08:49;;;;;;;6.68;4.85;;;;;;;;;;4335241;32;20469;-61
2021/01/25 13:11:14;;;;;;;7.00;4.60;;;;;;;;;;4357750;32;20109;-61
2021/01/25 13:13:40;;;;;;;6.53;4.35;;;;;;;;;;4363950;32;20146;-66
2021/01/25 13:16:06;;;;;;;6.35;4.47;;;;;;;;;;4335265;32;20581;-63
2021/01/25 13:18:32;;;;;;;6.12;4.47;;;;;;;;;;4349565;32;20174;-61
2021/01/25 13:20:57;;;;;;;7.10;4.10;;;;;;;;;;4340708;32;20090;-63
2021/01/25 13:23:23;;;;;;;6.30;4.55;;;;;;;;;;4360413;32;20114;-62
2021/01/25 13:25:49;;;;;;;6.37;4.82;;;;;;;;;;4359669;32;20089;-63
2021/01/25 13:28:15;;;;;;;6.93;4.50;;;;;;;;;;4331576;33;20570;-62
2021/01/25 13:30:40;;;;;;;6.68;4.53;;;;;;;;;;4347092;32;20461;-63
2021/01/25 13:35:41;;;;;;;6.00;4.50;;;;;;;;;;3808318;37;20062;-63
2021/01/25 13:38:06;;;;;;;10.25;5.30;;;;;;;;;;4368321;32;20506;-63
2021/01/25 13:40:32;;;;;;;5.85;4.00;;;;;;;;;;4350130;32;20202;-63
2021/01/25 13:42:58;;;;;;;6.00;4.05;;;;;;;;;;4379021;32;20519;-62
2021/01/25 13:45:26;;;;;;;7.07;4.53;;;;;;;;;;4366022;32;20082;-62
2021/01/25 13:47:52;;;;;;;6.95;4.40;;;;;;;;;;4361458;32;20491;-62
2021/01/25 13:50:18;;;;;;;7.43;4.43;;;;;;;;;;4346740;32;20551;-61
2021/01/25 13:52:44;;;;;;;6.65;4.57;;;;;;;;;;4363155;32;20084;-61
2021/01/25 13:55:10;;;;;;;;;;;;;;;;;;4363646;32;20190;-61
2021/01/25 13:57:36;;;;;;;8.27;4.50;;;;;;;;;;4372798;32;19984;-62
2021/01/25 14:00:07;;;;;;;6.30;3.83;;;;;;;;;;4375764;32;20139;-62
2021/01/25 14:02:33;;;;;;;5.90;3.90;;;;;;;;;;4361926;32;20062;-61
2021/01/25 14:04:58;;;;;;;;;;;;;;;;;;4382931;32;20088;-61
2021/01/25 14:07:24;;;;;;;6.43;3.72;;;;;;;;;;4374391;32;19997;-64
2021/01/25 14:09:50;;;;;;;6.07;3.80;;;;;;;;;;4386296;32;20612;-65
2021/01/25 14:12:15;;;;;;;;;;;;;;;;;;4360200;32;20077;-67
2021/01/25 14:14:43;;;;;;;6.80;4.30;;;;;;;;;;4367997;32;20065;-69
2021/01/25 14:17:12;;;;;;;7.45;5.20;;;;;;;;;;4349570;32;20092;-64
2021/01/25 14:19:40;;;;;;;7.43;4.80;;;;;;;;;;4379626;32;20076;-65
2021/01/25 14:22:06;;;;;;;7.15;4.50;;;;;;;;;;4374859;32;20072;-63
2021/01/25 14:24:32;;;;;;;6.50;4.45;;;;;;;;;;4348280;32;20475;-65
2021/01/25 14:26:58;;;;;;;;;;;;;;;;;;4358022;32;20081;-64
2021/01/25 14:29:24;;;;;;;6.40;4.15;;;;;;;;;;4370323;32;19993;-64
2021/01/25 14:31:50;;;;;;;6.78;4.65;;;;;;;;;;4349233;32;20109;-64
2021/01/25 14:34:17;;;;;;;6.18;4.32;;;;;;;;;;4374790;32;20209;-64
2021/01/25 14:36:44;;;;;;;7.10;4.60;;;;;;;;;;4388570;32;20074;-62
2021/01/25 14:39:09;;;;;;;6.75;4.30;;;;;;;;;;4356120;32;20107;-63
2021/01/25 14:41:35;;;;;;;;;;;;;;;;;;4351297;32;20079;-64
2021/01/25 14:44:01;;;;;;;6.20;4.82;;;;;;;;;;4370616;32;20040;-63
2021/01/25 14:46:28;;;;;;;5.85;4.15;;;;;;;;;;4328429;32;20093;-64
2021/01/25 14:48:54;;;;;;;6.37;4.25;;;;;;;;;;4338143;32;20097;-64
2021/01/25 14:51:20;;;;;;;5.57;3.80;;;;;;;;;;4341166;32;20070;-63
2021/01/25 14:53:45;;;;;;;7.25;5.18;;;;;;;;;;4334197;32;20093;-63
2021/01/25 14:56:11;;;;;;;;;;;;;;;;;;4339257;32;20078;-64
2021/01/25 14:58:40;;;;;;;7.03;4.60;;;;;;;;;;4364024;32;20058;-65
2021/01/25 15:01:06;;;;;;;6.18;4.25;;;;;;;;;;4346503;32;20102;-65
2021/01/25 15:03:32;;;;;;;7.28;5.57;;;;;;;;;;4360517;32;20120;-64
2021/01/25 15:05:57;;;;;;;7.15;4.80;;;;;;;;;;4348028;32;20094;-65
2021/01/25 15:08:23;;;;;;;;;;;;;;;;;;4348985;32;20113;-66
2021/01/25 15:10:48;;;;;;;7.32;5.03;;;;;;;;;;4361100;32;20095;-66
2021/01/25 15:13:14;;;;;;;7.00;4.12;;;;;;;;;;4375019;32;20094;-65
2021/01/25 15:15:40;;;;;;;8.98;5.32;;;;;;;;;;4362995;32;20084;-65
2021/01/25 15:18:06;;;;;;;6.87;5.00;;;;;;;;;;4340011;32;20090;-64
2021/01/25 15:20:33;;;;;;;7.22;4.65;;;;;;;;;;4352297;32;20067;-64
2021/01/25 15:23:03;;;;;;;6.43;4.43;;;;;;;;;;4368538;32;20159;-64
2021/01/25 15:25:30;;;;;;;6.70;4.82;;;;;;;;;;4349674;32;20102;-66
2021/01/25 15:27:56;;;;;;;8.07;5.45;;;;;;;;;;4349650;32;20062;-65
2021/01/25 15:30:22;;;;;;;7.32;5.10;;;;;;;;;;4313268;32;20106;-64
2021/01/25 15:32:48;;;;;;;7.30;4.78;;;;;;;;;;4364744;32;20565;-64
2021/01/25 15:35:14;;;;;;;8.23;5.62;;;;;;;;;;4364834;32;20105;-65
2021/01/25 15:37:40;;;;;;;7.75;4.53;;;;;;;;;;4352787;32;20500;-65
2021/01/25 15:40:07;;;;;;;7.32;4.53;;;;;;;;;;4364639;32;20081;-64
2021/01/25 15:42:32;;;;;;;6.82;5.03;;;;;;;;;;4352394;32;20071;-65
2021/01/25 15:44:58;;;;;;;8.07;4.62;;;;;;;;;;4340021;32;20078;-65
2021/01/25 15:47:24;;;;;;;;;;;;;;;;;;4364545;32;20161;-65
2021/01/25 15:49:49;;;;;;;7.20;4.62;;;;;;;;;;4364517;32;19974;-64
2021/01/25 15:52:15;;;;;;;6.95;4.68;;;;;;;;;;4364740;32;20186;-64
2021/01/25 15:54:41;;;;;;;6.45;4.62;;;;;;;;;;4352059;32;20166;-65
2021/01/25 15:57:06;;;;;;;7.10;5.18;;;;;;;;;;4363787;32;20085;-65
2021/01/25 15:59:32;;;;;;;7.72;4.85;;;;;;;;;;4378075;32;20085;-64
2021/01/25 16:01:58;;;;;;;;;;;;;;;;;;4364130;32;20089;-64
2021/01/25 16:04:23;;;;;;;7.28;4.65;;;;;;;;;;4364303;32;20012;-65
2021/01/25 16:06:50;;;;;;;6.70;4.53;;;;;;;;;;4364859;32;20094;-64
2021/01/25 16:09:16;;;;;;;6.68;4.32;;;;;;;;;;4378210;32;20073;-65
2021/01/25 16:11:41;;;;;;;;;;;;;;;;;;4364157;32;20071;-64
2021/01/25 16:14:07;;;;;;;7.72;4.78;;;;;;;;;;4363869;32;19988;-65
2021/01/25 16:16:33;;;;;;;;;;;;;;;;;;4352387;32;20105;-64
2021/01/25 16:19:01;;;;;;;7.32;4.32;;;;;;;;;;4377611;32;19969;-65
2021/01/25 16:21:30;;;;;;;7.45;4.72;;;;;;;;;;4378312;32;20157;-64
2021/01/25 16:23:56;;;;;;;7.50;4.90;;;;;;;;;;4363806;32;20508;-65
2021/01/25 16:26:22;;;;;;;;;;;;;;;;;;4364615;32;20194;-64
2021/01/25 16:28:48;;;;;;;6.10;4.28;;;;;;;;;;4377565;32;19985;-65
2021/01/25 16:31:14;;;;;;;7.62;4.55;;;;;;;;;;4345540;32;20571;-65
2021/01/25 16:33:39;;;;;;;;;;;;;;;;;;4362678;32;20082;-65
2021/01/25 16:36:05;;;;;;;6.45;4.15;;;;;;;;;;4349181;32;20390;-64
2021/01/25 16:38:31;;;;;;;6.03;4.20;;;;;;;;;;4363176;32;20098;-64
2021/01/25 16:40:57;;;;;;;6.25;4.43;;;;;;;;;;4337224;32;20500;-66
2021/01/25 16:43:23;;;;;;;6.72;4.30;;;;;;;;;;4324613;32;20223;-65
2021/01/25 16:45:50;;;;;;;5.75;4.12;;;;;;;;;;4324958;32;20146;-65
2021/01/25 16:48:16;;;;;;;7.10;4.37;;;;;;;;;;4348637;32;20530;-64
2021/01/25 16:50:46;;;;;;;5.85;4.18;;;;;;;;;;4311846;32;20521;-65
2021/01/25 16:53:13;;;;;;;5.70;4.18;;;;;;;;;;4348786;32;20452;-65
2021/01/25 16:55:41;;;;;;;5.93;3.70;;;;;;;;;;4336704;32;20585;-65
2021/01/25 16:58:07;;;;;;;5.95;3.92;;;;;;;;;;4324589;32;20460;-65
2021/01/25 17:00:33;;;;;;;6.05;4.10;;;;;;;;;;4351578;32;20084;-65
2021/01/25 17:02:59;;;;;;;;;;;;;;;;;;4353447;32;20084;-65
2021/01/25 17:05:24;;;;;;;5.40;4.00;;;;;;;;;;4357987;32;19984;-65
2021/01/25 17:07:51;;;;;;;6.05;4.22;;;;;;;;;;4364121;32;20078;-65
2021/01/25 17:10:17;;;;;;;;;;;;;;;;;;4365535;32;20100;-65
2021/01/25 17:12:42;;;;;;;7.12;5.00;;;;;;;;;;4366434;32;20472;-64
2021/01/25 17:15:08;;;;;;;;;;;;;;;;;;4363321;32;20075;-64
2021/01/25 17:17:34;;;;;;;6.95;4.40;;;;;;;;;;4363411;32;19962;-65
2021/01/25 17:20:00;;;;;;;6.57;4.47;;;;;;;;;;4363155;32;20157;-65
2021/01/25 17:22:25;;;;;;;7.68;4.30;;;;;;;;;;4363062;32;20077;-65
2021/01/25 17:24:51;;;;;;;7.45;5.37;;;;;;;;;;4344772;32;20089;-64
2021/01/25 17:27:17;;;;;;;6.80;4.97;;;;;;;;;;4348554;32;20089;-66
2021/01/25 17:29:43;;;;;;;7.82;4.72;;;;;;;;;;4348242;32;20525;-64
2021/01/25 17:32:10;;;;;;;6.85;4.57;;;;;;;;;;4335681;32;20101;-65
2021/01/25 17:34:36;;;;;;;7.57;5.20;;;;;;;;;;4347910;32;20067;-65
2021/01/25 17:37:02;;;;;;;;;;;;;;;;;;4324633;32;20182;-65
2021/01/25 17:39:27;;;;;;;7.45;5.03;;;;;;;;;;4348787;32;19985;-64
2021/01/25 17:41:53;;;;;;;8.77;4.90;;;;;;;;;;4361755;32;20078;-64
2021/01/25 17:44:19;;;;;;;;;;;;;;;;;;4325352;32;20079;-64
2021/01/25 17:46:44;;;;;;;8.65;4.60;;;;;;;;;;4362211;32;20368;-65
2021/01/25 17:49:11;;;;;;;7.22;4.90;;;;;;;;;;4336082;32;20165;-66
2021/01/25 17:51:37;;;;;;;7.68;5.32;;;;;;;;;;4361716;32;20085;-65
2021/01/25 17:54:03;;;;;;;8.75;4.78;;;;;;;;;;4336023;32;20409;-64
2021/01/25 17:56:29;;;;;;;;;;;;;;;;;;4361891;32;20082;-65
2021/01/25 17:58:55;;;;;;;7.78;4.97;;;;;;;;;;4335883;32;19978;-66
2021/01/25 18:01:20;;;;;;;8.32;4.85;;;;;;;;;;4376486;32;20094;-65
2021/01/25 18:03:46;;;;;;;8.35;4.35;;;;;;;;;;4350352;32;20086;-65
2021/01/25 18:06:13;;;;;;;;;;;;;;;;;;4350817;32;20144;-64
2021/01/25 18:08:38;;;;;;;8.02;5.28;;;;;;;;;;4377321;32;19977;-65
2021/01/25 18:11:04;;;;;;;8.05;5.22;;;;;;;;;;4338094;32;20527;-65
2021/01/25 18:13:30;;;;;;;;;;;;;;;;;;4351122;32;20500;-65
2021/01/25 18:15:56;;;;;;;9.38;5.20;;;;;;;;;;4363177;32;19973;-64
2021/01/25 18:18:21;;;;;;;;;;;;;;;;;;4350867;32;20071;-66
2021/01/25 18:20:47;;;;;;;8.48;5.20;;;;;;;;;;4377443;32;19977;-64
2021/01/25 18:23:13;;;;;;;;;;;;;;;;;;4365900;32;20146;-65
2021/01/25 18:25:38;;;;;;;9.55;5.45;;;;;;;;;;4353283;32;20418;-65
2021/01/25 18:28:04;;;;;;;8.70;5.25;;;;;;;;;;4340854;32;20457;-66
2021/01/25 18:30:31;;;;;;;8.73;5.95;;;;;;;;;;4351870;32;20085;-65
2021/01/25 18:32:58;;;;;;;9.70;5.80;;;;;;;;;;4350526;32;20063;-65
2021/01/25 18:35:25;;;;;;;9.68;6.50;;;;;;;;;;4350373;32;20083;-65
2021/01/25 18:37:52;;;;;;;9.85;6.53;;;;;;;;;;4363249;32;20082;-65
2021/01/25 18:40:17;;;;;;;;;;;;;;;;;;4351475;32;20078;-64
2021/01/25 18:42:43;;;;;;;12.27;7.22;;;;;;;;;;4350692;32;19969;-65
2021/01/25 18:45:10;;;;;;;10.18;6.15;;;;;;;;;;4362655;32;20108;-64
2021/01/25 18:47:37;;;;;;;11.10;7.55;;;;;;;;;;4337996;32;20074;-65
2021/01/25 18:50:03;;;;;;;12.65;7.55;;;;;;;;;;4363006;32;20103;-64
2021/01/25 18:52:29;;;;;;;10.80;6.87;;;;;;;;;;4350622;32;20187;-65
2021/01/25 18:54:54;;;;;;;;;;;;;;;;;;4362929;32;20492;-65
2021/01/25 18:57:20;;;;;;;10.65;7.18;;;;;;;;;;4364459;32;19977;-65
2021/01/25 18:59:46;;;;;;;10.43;6.62;;;;;;;;;;4365529;32;20089;-65
2021/01/25 19:02:13;;;;;;;13.15;7.55;;;;;;;;;;4365402;32;20492;-65
2021/01/25 19:04:39;;;;;;;10.65;7.12;;;;;;;;;;4340983;32;20073;-64
2021/01/25 19:07:05;;;;;;;;;;;;;;;;;;4340528;32;20074;-64
2021/01/25 19:09:30;;;;;;;13.30;8.35;;;;;;;;;;4365496;32;19974;-64
2021/01/25 19:11:56;;;;;;;13.07;7.03;;;;;;;;;;4365322;32;20093;-65
2021/01/25 19:14:22;;;;;;;13.52;7.15;;;;;;;;;;4352892;32;20088;-65
2021/01/25 19:16:48;;;;;;;11.10;6.57;;;;;;;;;;4339872;32;20518;-65
2021/01/25 19:19:14;;;;;;;15.18;8.65;;;;;;;;;;4353369;32;20089;-64
2021/01/25 19:21:39;;;;;;;;;;;;;;;;;;4353243;32;20593;-64
2021/01/25 19:24:06;;;;;;;13.55;8.15;;;;;;;;;;4378997;32;20385;-64
2021/01/25 19:26:31;;;;;;;13.27;9.02;;;;;;;;;;4352627;32;20429;-65
2021/01/25 19:28:57;;;;;;;;;;;;;;;;;;4365280;32;20073;-64
2021/01/25 19:31:23;;;;;;;13.90;8.93;;;;;;;;;;4357843;32;19982;-64
2021/01/25 19:33:48;;;;;;;12.45;7.57;;;;;;;;;;4325269;32;20481;-66
2021/01/25 19:36:14;;;;;;;;;;;;;;;;;;4337928;32;20093;-66
2021/01/25 19:38:40;;;;;;;14.20;8.38;;;;;;;;;;4349832;32;19965;-65
2021/01/25 19:41:06;;;;;;;13.13;7.57;;;;;;;;;;4363086;32;20075;-65
2021/01/25 19:43:32;;;;;;;12.57;7.50;;;;;;;;;;4337489;32;20077;-64
2021/01/25 19:45:59;;;;;;;;;;;;;;;;;;4325364;32;20105;-66
2021/01/25 19:48:25;;;;;;;;;;;;;;;;;;4338139;32;19982;-64
2021/01/25 19:50:51;;;;;;;13.62;7.82;;;;;;;;;;4336972;32;20045;-65
2021/01/25 19:53:18;;;;;;;13.07;7.95;;;;;;;;;;4325164;32;20077;-65
2021/01/25 19:55:44;;;;;;;13.02;8.38;;;;;;;;;;4337197;32;20069;-64
2021/01/25 19:58:14;;;;;;;;;;;;;;;;;;4337244;32;20082;-64
2021/01/25 20:00:40;;;;;;;15.85;8.63;;;;;;;;;;4357429;32;20391;-64
2021/01/25 20:03:06;;;;;;;12.65;7.25;;;;;;;;;;4337646;32;20571;-65
2021/01/25 20:05:31;;;;;;;;;;;;;;;;;;4325292;32;20086;-65
2021/01/25 20:08:00;;;;;;;15.20;8.90;;;;;;;;;;4324525;32;20041;-65
2021/01/25 20:10:27;;;;;;;16.50;7.60;;;;;;;;;;4325395;32;20063;-65
2021/01/25 20:12:55;;;;;;;13.60;8.43;;;;;;;;;;4363221;32;20500;-64
2021/01/25 20:15:25;;;;;;;17.48;7.95;;;;;;;;;;4337090;32;20110;-65
2021/01/25 20:17:51;;;;;;;15.35;7.68;;;;;;;;;;4337591;32;20162;-66
2021/01/25 20:20:17;;;;;;;;;;;;;;;;;;4337549;32;20082;-64
2021/01/25 20:22:45;;;;;;;15.25;8.35;;;;;;;;;;4348827;32;20355;-65
2021/01/25 20:25:44;;;;;;;16.42;8.48;;;;;;;;;;4325571;32;20070;-65
2021/01/25 20:28:19;;;;;;;14.60;8.18;;;;;;;;;;4309035;32;20090;-65
2021/01/25 20:30:49;;;;;;;12.87;7.40;;;;;;;;;;4324539;32;20074;-66
2021/01/25 20:33:18;;;;;;;15.10;8.90;;;;;;;;;;4349158;32;20075;-65
2021/01/25 20:35:44;;;;;;;16.87;8.73;;;;;;;;;;4336709;32;20067;-65
2021/01/25 20:38:09;;;;;;;;;;;;;;;;;;4338598;32;20082;-64
2021/01/25 20:40:35;;;;;;;15.00;8.15;;;;;;;;;;4352980;32;19966;-65
2021/01/25 20:43:01;;;;;;;;;;;;;;;;;;4366797;32;20112;-65
2021/01/25 20:45:33;;;;;;;15.30;9.23;;;;;;;;;;4376487;32;20448;-64
2021/01/25 20:47:59;;;;;;;15.70;8.30;;;;;;;;;;4349227;32;20079;-66
2021/01/25 20:50:29;;;;;;;14.27;7.45;;;;;;;;;;4337866;32;20250;-66
2021/01/25 20:52:55;;;;;;;13.27;6.97;;;;;;;;;;4336555;32;20152;-66
2021/01/25 20:55:22;;;;;;;14.65;8.07;;;;;;;;;;4336650;32;20063;-65
2021/01/25 20:57:47;;;;;;;14.95;9.90;;;;;;;;;;4336054;32;20090;-65
2021/01/25 21:00:13;;;;;;;;;;;;;;;;;;4356422;32;20594;-66
2021/01/25 21:02:39;;;;;;;14.90;8.25;;;;;;;;;;4376897;32;19975;-66
2021/01/25 21:05:05;;;;;;;;;;;;;;;;;;4338959;32;20180;-65
2021/01/25 21:07:31;;;;;;;14.45;7.60;;;;;;;;;;4351198;32;19981;-65
2021/01/25 21:09:56;;;;;;;;;;;;;;;;;;4338979;32;20456;-65
2021/01/25 21:12:22;;;;;;;14.63;8.00;;;;;;;;;;4363116;32;19957;-65
2021/01/25 21:14:49;;;;;;;;;;;;;;;;;;4363472;32;20075;-64
2021/01/25 21:17:15;;;;;;;14.60;8.48;;;;;;;;;;4377305;32;19981;-65
2021/01/25 21:19:41;;;;;;;14.13;7.37;;;;;;;;;;4351130;32;20070;-64
2021/01/25 21:22:06;;;;;;;;;;;;;;;;;;4377463;32;20069;-66
2021/01/25 21:24:32;;;;;;;14.57;8.68;;;;;;;;;;4377048;32;19970;-65
2021/01/25 21:26:57;;;;;;;;;;;;;;;;;;4363541;32;20070;-64
2021/01/25 21:29:24;;;;;;;14.57;8.15;;;;;;;;;;4350482;32;19976;-64
2021/01/25 21:31:50;;;;;;;15.35;8.65;;;;;;;;;;4363371;32;20138;-65
2021/01/25 21:34:16;;;;;;;;;;;;;;;;;;4350721;32;20216;-65
2021/01/25 21:36:42;;;;;;;18.10;8.70;;;;;;;;;;4363638;32;20004;-65
2021/01/25 21:39:07;;;;;;;16.35;9.38;;;;;;;;;;4350461;32;20162;-66
2021/01/25 21:41:33;;;;;;;16.08;8.30;;;;;;;;;;4363173;32;20080;-64
2021/01/25 21:43:59;;;;;;;;;;;;;;;;;;4350836;32;20086;-65
2021/01/25 21:46:24;;;;;;;17.58;8.70;;;;;;;;;;4363276;32;19973;-64
2021/01/25 21:48:51;;;;;;;16.35;9.07;;;;;;;;;;4352425;32;20093;-65
2021/01/25 21:51:20;;;;;;;18.80;9.35;;;;;;;;;;4351067;32;20054;-66
2021/01/25 21:53:45;;;;;;;17.42;8.00;;;;;;;;;;4350610;32;20085;-65
2021/01/25 21:56:11;;;;;;;;;;;;;;;;;;4352789;32;20074;-64
2021/01/25 21:58:37;;;;;;;15.75;8.63;;;;;;;;;;4380161;32;19978;-65
2021/01/25 22:01:02;;;;;;;;;;;;;;;;;;4353890;32;20496;-65
2021/01/25 22:03:28;;;;;;;16.25;9.07;;;;;;;;;;4354119;32;19981;-65
2021/01/25 22:05:54;;;;;;;15.57;8.38;;;;;;;;;;4353609;32;20539;-65
2021/01/25 22:08:19;;;;;;;16.02;9.07;;;;;;;;;;4365571;32;20157;-65
2021/01/25 22:10:45;;;;;;;15.75;8.23;;;;;;;;;;4365680;32;20485;-65
2021/01/25 22:13:11;;;;;;;14.75;8.43;;;;;;;;;;4379337;32;20096;-64
2021/01/25 22:15:38;;;;;;;15.35;9.25;;;;;;;;;;4365521;32;20089;-64
2021/01/25 22:18:05;;;;;;;15.63;7.87;;;;;;;;;;4379515;32;20058;-65
2021/01/25 22:20:30;;;;;;;15.38;9.38;;;;;;;;;;4365724;32;20167;-65
2021/01/25 22:22:56;;;;;;;;;;;;;;;;;;4353450;32;20522;-64
2021/01/25 22:25:24;;;;;;;16.62;9.05;;;;;;;;;;4353463;32;19970;-64
2021/01/25 22:27:50;;;;;;;13.85;8.13;;;;;;;;;;4353526;32;20171;-65
2021/01/25 22:30:17;;;;;;;;;;;;;;;;;;4355890;32;20504;-65
2021/01/25 22:32:43;;;;;;;15.85;10.10;;;;;;;;;;4353880;32;20050;-65
2021/01/25 22:35:10;;;;;;;14.25;8.98;;;;;;;;;;4339063;33;20098;-64
2021/01/25 22:37:36;;;;;;;16.10;8.50;;;;;;;;;;4316350;33;20481;-65
2021/01/25 22:40:03;;;;;;;15.35;8.63;;;;;;;;;;4331653;33;20077;-65
2021/01/25 22:42:29;;;;;;;14.40;7.93;;;;;;;;;;4330749;33;20124;-64
2021/01/25 22:44:54;;;;;;;;;;;;;;;;;;4339611;33;20410;-65
2021/01/25 22:47:21;;;;;;;15.90;8.47;;;;;;;;;;4360139;33;20020;-65
2021/01/25 22:49:47;;;;;;;18.08;9.88;;;;;;;;;;4319787;33;20155;-65
2021/01/25 22:52:13;;;;;;;14.68;8.35;;;;;;;;;;4344898;33;20115;-64
2021/01/25 22:54:39;;;;;;;14.82;9.07;;;;;;;;;;4345969;33;20102;-65
2021/01/25 22:57:04;;;;;;;;;;;;;;;;;;4346163;33;20075;-65
2021/01/25 22:59:30;;;;;;;14.90;8.93;;;;;;;;;;4360393;32;19996;-65
2021/01/25 23:01:55;;;;;;;;;;;;;;;;;;4347782;33;20164;-66
2021/01/25 23:04:21;;;;;;;19.87;9.45;;;;;;;;;;4347017;33;19973;-65
2021/01/25 23:06:47;;;;;;;;;;;;;;;;;;4344284;33;20105;-65
2021/01/25 23:09:13;;;;;;;14.48;8.60;;;;;;;;;;4342271;33;19996;-65
2021/01/25 23:11:39;;;;;;;16.95;8.60;;;;;;;;;;4346151;33;20070;-68
2021/01/25 23:14:04;;;;;;;;;;;;;;;;;;4320331;33;20122;-65
2021/01/25 23:16:30;;;;;;;15.82;10.18;;;;;;;;;;4358512;33;19970;-65
2021/01/25 23:18:55;;;;;;;16.98;10.77;;;;;;;;;;4340247;33;20105;-65
2021/01/25 23:21:22;;;;;;;16.75;9.10;;;;;;;;;;4341668;33;20095;-65
2021/01/25 23:23:48;;;;;;;16.50;10.52;;;;;;;;;;4343147;33;20079;-65
2021/01/25 23:26:18;;;;;;;16.35;9.65;;;;;;;;;;4340495;33;20138;-65
2021/01/25 23:28:44;;;;;;;16.52;9.52;;;;;;;;;;4354254;33;20511;-65
2021/01/25 23:31:10;;;;;;;;;;;;;;;;;;4354951;33;20071;-65
2021/01/25 23:33:35;;;;;;;18.20;10.00;;;;;;;;;;4364978;32;19981;-68
2021/01/25 23:36:01;;;;;;;;;;;;;;;;;;4350369;32;20077;-66
2021/01/25 23:38:28;;;;;;;18.77;10.48;;;;;;;;;;4359698;32;19992;-65
2021/01/25 23:40:54;;;;;;;16.55;9.77;;;;;;;;;;4347265;32;20086;-65
2021/01/25 23:43:39;;;;;;;18.17;11.70;;;;;;;;;;4347295;33;20134;-66
2021/01/25 23:46:07;;;;;;;18.27;11.10;;;;;;;;;;4346974;33;20074;-65
2021/01/25 23:48:33;;;;;;;19.42;10.65;;;;;;;;;;4334892;33;20091;-65
2021/01/25 23:50:59;;;;;;;;;;;;;;;;;;4347282;33;20129;-65
2021/01/25 23:53:25;;;;;;;17.23;9.75;;;;;;;;;;4335110;33;19978;-65
2021/01/25 23:55:56;;;;;;;21.73;11.55;;;;;;;;;;4334822;33;20063;-65
2021/01/25 23:58:25;;;;;;;17.60;9.95;;;;;;;;;;4334663;33;20160;-65
